Time;durP1;ratioP1;P1;durP2;ratioP2;P2;SDS_P1;SDS_P2;PMS_P1;PMS_P2;Temp;Humidity;BMP_temperature;BMP_pressure;BME280_temperature;BME280_humidity;BME280_pressure;Samples;Min_cycle;Max_cycle;Signal;HPM_P1;HPM_P2
2023/03/11 00:01:15;;;;;;;;;;;;;;;;;;5063854;28;19921;-56
2023/03/11 00:03:41;;;;;;;;;;;;;;;;;;5063131;28;20146;-56
2023/03/11 00:06:07;;;;;;;;;;;1.20;99.90;;;;;;5063679;28;19921;-56
2023/03/11 00:08:33;;;;;;;;;;;;;;;;;;5062502;28;19935;-55
2023/03/11 00:10:59;;;;;;;;;;;;;;;;;;5048526;28;19920;-53
2023/03/11 00:13:25;;;;;;;;;;;;;;;;;;5056869;28;19928;-55
2023/03/11 00:15:51;;;;;;;;;;;;;;;;;;5064638;28;19920;-56
2023/03/11 00:18:17;;;;;;;;;;;;;;;;;;5060419;28;19995;-56
2023/03/11 00:20:43;;;;;;;;;;;;;;;;;;5058177;28;20437;-55
2023/03/11 00:23:09;;;;;;;;;;;;;;;;;;5062930;28;20290;-53
2023/03/11 00:25:35;;;;;;;;;;;;;;;;;;5060154;28;19920;-53
2023/03/11 00:28:01;;;;;;;;;;;1.00;99.90;;;;;;5061928;28;19963;-52
2023/03/11 00:30:28;;;;;;;;;;;;;;;;;;5062145;28;20469;-53
2023/03/11 00:32:56;;;;;;;;;;;1.00;99.90;;;;;;5063270;28;20377;-55
2023/03/11 00:35:22;;;;;;;;;;;;;;;;;;5061203;28;19932;-54
2023/03/11 00:37:48;;;;;;;;;;;;;;;;;;5062913;28;20352;-55
2023/03/11 00:40:14;;;;;;;;;;;;;;;;;;5063962;28;19920;-53
2023/03/11 00:42:39;;;;;;;;;;;1.30;99.90;;;;;;5060906;28;19924;-53
2023/03/11 00:45:05;;;;;;;;;;;1.30;99.90;;;;;;5061183;28;19932;-56
2023/03/11 00:47:31;;;;;;;;;;;;;;;;;;5057571;28;19928;-54
2023/03/11 00:49:57;;;;;;;;;;;;;;;;;;5059852;28;20007;-56
2023/03/11 00:52:23;;;;;;;;;;;;;;;;;;5064799;28;19925;-55
2023/03/11 00:54:49;;;;;;;;;;;;;;;;;;5058355;28;19978;-55
2023/03/11 00:57:15;;;;;;;;;;;;;;;;;;5058197;28;19922;-54
2023/03/11 00:59:40;;;;;;;;;;;;;;;;;;5061372;28;20355;-56
2023/03/11 01:02:06;;;;;;;;;;;1.00;99.90;;;;;;5059047;28;19947;-55
2023/03/11 01:04:32;;;;;;;;;;;;;;;;;;5056996;28;19932;-56
2023/03/11 01:06:58;;;;;;;;;;;;;;;;;;5064763;28;19928;-53
2023/03/11 01:09:24;;;;;;;;;;;;;;;;;;5067759;28;19920;-54
2023/03/11 01:11:50;;;;;;;;;;;;;;;;;;5061801;28;19920;-54
2023/03/11 01:14:16;;;;;;;;;;;;;;;;;;5065164;28;19924;-55
2023/03/11 01:16:42;;;;;;;;;;;;;;;;;;5064826;28;20465;-55
2023/03/11 01:19:08;;;;;;;;;;;;;;;;;;5062234;28;19920;-53
2023/03/11 01:21:33;;;;;;;;;;;1.00;99.90;;;;;;5061913;28;19921;-53
2023/03/11 01:23:59;;;;;;;;;;;;;;;;;;5062360;28;19927;-54
2023/03/11 01:26:25;;;;;;;;;;;1.10;99.90;;;;;;5065885;28;19921;-55
2023/03/11 01:28:51;;;;;;;;;;;;;;;;;;5065975;28;19920;-55
2023/03/11 01:31:17;;;;;;;;;;;;;;;;;;5064858;28;20003;-54
2023/03/11 01:33:43;;;;;;;;;;;;;;;;;;5062571;28;19924;-53
2023/03/11 01:36:09;;;;;;;;;;;;;;;;;;5064435;28;19929;-55
2023/03/11 01:38:34;;;;;;;;;;;1.00;99.90;;;;;;5063350;28;19920;-55
2023/03/11 01:41:00;;;;;;;;;;;1.10;99.90;;;;;;5062308;28;19920;-56
2023/03/11 01:43:26;;;;;;;;;;;;;;;;;;5063079;28;19974;-54
2023/03/11 01:45:52;;;;;;;;;;;;;;;;;;5061724;28;19936;-54
2023/03/11 01:48:17;;;;;;;;;;;;;;;;;;5060322;28;20630;-52
2023/03/11 01:50:45;;;;;;;;;;;1.30;99.90;;;;;;5064516;28;19920;-53
2023/03/11 01:53:11;;;;;;;;;;;;;;;;;;5065589;28;19931;-55
2023/03/11 01:55:36;;;;;;;;;;;;;;;;;;5063542;28;19924;-53
2023/03/11 01:58:02;;;;;;;;;;;;;;;;;;5061542;28;20306;-54
2023/03/11 02:00:28;;;;;;;;;;;;;;;;;;5065920;28;20405;-55
2023/03/11 02:02:56;;;;;;;;;;;0.30;99.90;;;;;;5062597;28;19971;-55
2023/03/11 02:05:22;;;;;;;;;;;1.00;99.90;;;;;;5063042;28;19955;-54
2023/03/11 02:07:49;;;;;;;;;;;0.00;99.90;;;;;;5062028;28;20313;-55
2023/03/11 02:10:15;;;;;;;;;;;;;;;;;;5062255;28;20656;-55
2023/03/11 02:12:41;;;;;;;;;;;;;;;;;;5061255;28;19924;-55
2023/03/11 02:15:07;;;;;;;;;;;;;;;;;;5063827;28;20297;-52
2023/03/11 02:17:33;;;;;;;;;;;0.60;99.90;;;;;;5059753;28;19929;-55
2023/03/11 02:20:17;;;;;;;;;;;0.80;99.90;;;;;;5062244;28;19927;-55
2023/03/11 02:22:43;;;;;;;;;;;;;;;;;;5060623;28;19924;-51
2023/03/11 02:25:09;;;;;;;;;;;;;;;;;;5058420;28;19938;-55
2023/03/11 02:27:36;;;;;;;;;;;1.10;99.90;;;;;;5058214;28;19921;-54
2023/03/11 02:30:03;;;;;;;;;;;1.10;99.90;;;;;;5056909;28;20015;-54
2023/03/11 02:32:29;;;;;;;;;;;;;;;;;;5058863;28;20344;-54
2023/03/11 02:34:55;;;;;;;;;;;;;;;;;;5061959;28;19925;-54
2023/03/11 02:37:21;;;;;;;;;;;;;;;;;;5064875;28;19973;-55
2023/03/11 02:39:47;;;;;;;;;;;;;;;;;;5065595;28;19974;-52
2023/03/11 02:42:13;;;;;;;;;;;;;;;;;;5064604;28;19921;-52
2023/03/11 02:44:38;;;;;;;;;;;;;;;;;;5059146;28;19928;-54
2023/03/11 02:47:04;;;;;;;;;;;;;;;;;;5059171;28;19924;-51
2023/03/11 02:49:30;;;;;;;;;;;0.80;99.90;;;;;;5055928;28;20301;-55
2023/03/11 02:51:56;;;;;;;;;;;;;;;;;;5059819;28;20015;-55
2023/03/11 02:54:22;;;;;;;;;;;;;;;;;;5056525;28;19924;-54
2023/03/11 02:56:48;;;;;;;;;;;;;;;;;;5062805;28;19921;-57
2023/03/11 02:59:14;;;;;;;;;;;;;;;;;;5062494;28;19937;-55
2023/03/11 03:01:39;;;;;;;;;;;0.40;99.90;;;;;;5064546;28;19927;-54
2023/03/11 03:04:05;;;;;;;;;;;;;;;;;;5064177;28;19982;-52
2023/03/11 03:06:31;;;;;;;;;;;;;;;;;;5063689;28;19927;-54
2023/03/11 03:08:57;;;;;;;;;;;;;;;;;;5060524;28;19927;-55
2023/03/11 03:11:23;;;;;;;;;;;;;;;;;;5063632;28;20015;-57
2023/03/11 03:13:49;;;;;;;;;;;;;;;;;;5058531;28;20004;-55
2023/03/11 03:16:14;;;;;;;;;;;;;;;;;;5062546;28;20476;-54
2023/03/11 03:18:40;;;;;;;;;;;0.50;99.90;;;;;;5061017;28;19921;-51
2023/03/11 03:21:05;;;;;;;;;;;0.30;99.90;;;;;;5062542;28;19921;-52
2023/03/11 03:23:34;;;;;;;;;;;;;;;;;;5063809;28;19963;-55
2023/03/11 03:25:59;;;;;;;;;;;;;;;;;;5066124;28;20274;-56
2023/03/11 03:28:25;;;;;;;;;;;;;;;;;;5056881;28;19969;-56
2023/03/11 03:30:51;;;;;;;;;;;;;;;;;;5060349;28;19925;-54
2023/03/11 03:33:17;;;;;;;;;;;0.00;99.90;;;;;;5057544;28;19920;-52
2023/03/11 03:35:43;;;;;;;;;;;0.10;99.90;;;;;;5057317;28;19938;-55
2023/03/11 03:38:09;;;;;;;;;;;;;;;;;;5064263;28;19920;-55
2023/03/11 03:40:35;;;;;;;;;;;0.10;99.90;;;;;;5064271;28;20622;-55
2023/03/11 03:43:01;;;;;;;;;;;-0.20;99.90;;;;;;5059864;28;19928;-52
2023/03/11 03:45:27;;;;;;;;;;;;;;;;;;5060875;28;20011;-56
2023/03/11 03:47:52;;;;;;;;;;;;;;;;;;5061872;28;19932;-55
2023/03/11 03:50:18;;;;;;;;;;;;;;;;;;5064439;28;19924;-55
2023/03/11 03:52:44;;;;;;;;;;;-0.10;99.90;;;;;;5059437;28;19920;-54
2023/03/11 03:55:10;;;;;;;;;;;;;;;;;;5062230;28;19931;-53
2023/03/11 03:57:36;;;;;;;;;;;;;;;;;;5056431;28;19982;-52
2023/03/11 04:00:03;;;;;;;;;;;;;;;;;;5060462;28;19924;-52
2023/03/11 04:02:29;;;;;;;;;;;-0.80;99.90;;;;;;5063918;28;19939;-53
2023/03/11 04:04:55;;;;;;;;;;;;;;;;;;5061475;28;20370;-51
2023/03/11 04:07:21;;;;;;;;;;;;;;;;;;5064658;28;19934;-52
2023/03/11 04:09:47;;;;;;;;;;;;;;;;;;5064065;28;20479;-52
2023/03/11 04:12:13;;;;;;;;;;;-0.50;99.90;;;;;;5061344;28;19924;-52
2023/03/11 04:14:39;;;;;;;;;;;;;;;;;;5063187;28;19978;-53
2023/03/11 04:17:05;;;;;;;;;;;-0.70;99.90;;;;;;5063431;28;20322;-51
2023/03/11 04:19:31;;;;;;;;;;;;;;;;;;5061800;28;20369;-52
2023/03/11 04:21:56;;;;;;;;;;;;;;;;;;5064447;28;19971;-55
2023/03/11 04:24:22;;;;;;;;;;;;;;;;;;5056992;28;19967;-53
2023/03/11 04:26:48;;;;;;;;;;;;;;;;;;5057204;28;19932;-53
2023/03/11 04:29:14;;;;;;;;;;;;;;;;;;5055659;28;19925;-52
2023/03/11 04:31:40;;;;;;;;;;;-0.10;99.90;;;;;;5056098;28;19927;-52
2023/03/11 04:34:06;;;;;;;;;;;;;;;;;;5062277;28;19960;-52
2023/03/11 04:36:32;;;;;;;;;;;;;;;;;;5062063;28;20404;-51
2023/03/11 04:39:01;;;;;;;;;;;;;;;;;;5064900;28;20424;-54
2023/03/11 04:41:27;;;;;;;;;;;;;;;;;;5066179;28;20350;-54
2023/03/11 04:43:52;;;;;;;;;;;-0.40;99.90;;;;;;5067557;28;19995;-53
2023/03/11 04:46:18;;;;;;;;;;;;;;;;;;5063831;28;19975;-51
2023/03/11 04:48:44;;;;;;;;;;;;;;;;;;5062707;28;19924;-54
2023/03/11 04:51:10;;;;;;;;;;;;;;;;;;5060895;28;20564;-53
2023/03/11 04:53:35;;;;;;;;;;;-0.20;99.90;;;;;;5066453;28;19970;-52
2023/03/11 04:56:01;;;;;;;;;;;0.00;99.90;;;;;;5066267;28;19970;-52
2023/03/11 04:58:27;;;;;;;;;;;;;;;;;;5066561;28;20271;-53
2023/03/11 05:00:53;;;;;;;;;;;;;;;;;;5063650;28;19924;-53
2023/03/11 05:03:19;;;;;;;;;;;;;;;;;;5061990;28;19979;-52
2023/03/11 05:05:45;;;;;;;;;;;;;;;;;;5063607;28;20111;-54
2023/03/11 05:08:10;;;;;;;;;;;0.00;99.90;;;;;;5067111;28;19927;-52
2023/03/11 05:10:36;;;;;;;;;;;;;;;;;;5068830;28;20007;-55
2023/03/11 05:13:02;;;;;;;;;;;0.00;99.90;;;;;;5065039;28;20662;-55
2023/03/11 05:15:30;;;;;;;;;;;;;;;;;;5062287;28;20020;-53
2023/03/11 05:17:56;;;;;;;;;;;;;;;;;;5060634;28;20004;-55
2023/03/11 05:20:21;;;;;;;;;;;;;;;;;;5060626;28;20682;-54
2023/03/11 05:22:47;;;;;;;;;;;0.20;99.90;;;;;;5064708;28;19920;-55
2023/03/11 05:25:13;;;;;;;;;;;0.00;99.90;;;;;;5068422;28;19921;-54
2023/03/11 05:27:38;;;;;;;;;;;0.00;99.90;;;;;;5063219;28;19928;-55
2023/03/11 05:30:04;;;;;;;;;;;;;;;;;;5065359;28;20406;-56
2023/03/11 05:32:30;;;;;;;;;;;;;;;;;;5064570;28;19921;-54
2023/03/11 05:34:56;;;;;;;;;;;;;;;;;;5061158;28;20658;-54
2023/03/11 05:37:22;;;;;;;;;;;;;;;;;;5064730;28;19920;-54
2023/03/11 05:39:48;;;;;;;;;;;;;;;;;;5060435;28;19932;-55
2023/03/11 05:42:13;;;;;;;;;;;-0.30;99.90;;;;;;5065539;28;19965;-54
2023/03/11 05:44:40;;;;;;;;;;;;;;;;;;5064989;28;20036;-54
2023/03/11 05:47:06;;;;;;;;;;;;;;;;;;5065307;28;19920;-54
2023/03/11 05:49:32;;;;;;;;;;;0.00;99.90;;;;;;5064985;28;20445;-55
2023/03/11 05:51:58;;;;;;;;;;;;;;;;;;5063284;28;20049;-55
2023/03/11 05:54:24;;;;;;;;;;;;;;;;;;5067303;28;19925;-55
2023/03/11 05:56:50;;;;;;;;;;;;;;;;;;5066599;28;20087;-55
2023/03/11 05:59:16;;;;;;;;;;;;;;;;;;5063157;28;20036;-55
2023/03/11 06:01:42;;;;;;;;;;;;;;;;;;5063637;28;19927;-55
2023/03/11 06:04:08;;;;;;;;;;;;;;;;;;5060648;28;19928;-55
2023/03/11 06:06:34;;;;;;;;;;;0.00;99.90;;;;;;5062263;28;19928;-54
2023/03/11 06:09:00;;;;;;;;;;;-0.90;99.90;;;;;;5066406;28;19928;-55
2023/03/11 06:11:26;;;;;;;;;;;;;;;;;;5064748;28;19920;-54
2023/03/11 06:13:53;;;;;;;;;;;;;;;;;;5065224;28;20412;-56
2023/03/11 06:16:19;;;;;;;;;;;;;;;;;;5059512;28;20032;-57
2023/03/11 06:18:45;;;;;;;;;;;;;;;;;;5058488;28;20008;-54
2023/03/11 06:21:21;;;;;;;;;;;-0.70;99.90;;;;;;5060382;28;19920;-55
2023/03/11 06:23:47;;;;;;;;;;;;;;;;;;5061931;28;20078;-55
2023/03/11 06:26:14;;;;;;;;;;;-0.20;99.90;;;;;;5062033;28;20296;-54
2023/03/11 06:28:40;;;;;;;;;;;;;;;;;;5062857;28;19967;-57
2023/03/11 06:31:06;;;;;;;;;;;;;;;;;;5063369;28;19975;-55
2023/03/11 06:33:32;;;;;;;;;;;;;;;;;;5042806;28;19920;-57
2023/03/11 06:35:58;;;;;;;;;;;;;;;;;;5061442;28;19994;-55
2023/03/11 06:38:23;;;;;;;;;;;-0.40;99.90;;;;;;5063718;28;19920;-55
2023/03/11 06:40:49;;;;;;;;;;;;;;;;;;5063290;28;19921;-55
2023/03/11 06:43:15;;;;;;;;;;;-0.20;99.90;;;;;;5060766;28;20385;-55
2023/03/11 06:45:41;;;;;;;;;;;;;;;;;;5060064;28;20439;-55
2023/03/11 06:48:07;;;;;;;;;;;;;;;;;;5060866;28;19920;-55
2023/03/11 06:50:33;;;;;;;;;;;;;;;;;;5062920;28;20028;-55
2023/03/11 06:52:59;;;;;;;;;;;;;;;;;;5064438;28;20007;-55
2023/03/11 06:55:25;;;;;;;;;;;;;;;;;;5066778;28;20320;-55
2023/03/11 06:57:51;;;;;;;;;;;;;;;;;;5062475;28;19920;-55
2023/03/11 07:00:16;;;;;;;;;;;0.10;1.00;;;;;;5061231;28;19920;-54
2023/03/11 07:02:42;;;;;;;;;;;;;;;;;;5058093;28;20322;-55
2023/03/11 07:05:08;;;;;;;;;;;;;;;;;;5061225;28;20019;-56
2023/03/11 07:07:34;;;;;;;;;;;;;;;;;;5058195;28;20055;-57
2023/03/11 07:10:00;;;;;;;;;;;;;;;;;;5062648;28;20582;-56
2023/03/11 07:12:25;;;;;;;;;;;0.10;1.00;;;;;;5063901;28;20421;-54
2023/03/11 07:14:51;;;;;;;;;;;;;;;;;;5061571;28;19924;-55
2023/03/11 07:17:17;;;;;;;;;;;;;;;;;;5061330;28;19920;-55
2023/03/11 07:19:43;;;;;;;;;;;0.90;99.90;;;;;;5060943;28;19921;-57
2023/03/11 07:22:09;;;;;;;;;;;;;;;;;;5061634;28;19921;-55
2023/03/11 07:24:34;;;;;;;;;;;0.90;1.00;;;;;;5061309;28;19956;-55
2023/03/11 07:27:00;;;;;;;;;;;;;;;;;;5061083;28;20391;-54
2023/03/11 07:29:26;;;;;;;;;;;;;;;;;;5057603;28;19971;-57
2023/03/11 07:31:52;;;;;;;;;;;;;;;;;;5057319;28;19924;-54
2023/03/11 07:34:18;;;;;;;;;;;;;;;;;;5060838;28;19942;-56
2023/03/11 07:36:44;;;;;;;;;;;;;;;;;;5062943;28;19921;-56
2023/03/11 07:39:10;;;;;;;;;;;;;;;;;;5062620;28;20398;-56
2023/03/11 07:41:36;;;;;;;;;;;;;;;;;;5062148;28;20022;-55
2023/03/11 07:44:02;;;;;;;;;;;;;;;;;;5062432;28;19920;-55
2023/03/11 07:46:28;;;;;;;;;;;1.50;99.90;;;;;;5064150;28;19928;-54
2023/03/11 07:48:53;;;;;;;;;;;2.10;99.90;;;;;;5056680;28;19928;-52
2023/03/11 07:51:21;;;;;;;;;;;1.30;99.90;;;;;;5057201;28;19921;-55
2023/03/11 07:53:46;;;;;;;;;;;;;;;;;;5056715;28;20341;-55
2023/03/11 07:56:12;;;;;;;;;;;;;;;;;;5058084;28;19926;-55
2023/03/11 07:58:38;;;;;;;;;;;;;;;;;;5058910;28;19921;-56
2023/03/11 08:01:05;;;;;;;;;;;;;;;;;;5059814;28;19924;-55
2023/03/11 08:03:31;;;;;;;;;;;;;;;;;;5057218;28;20012;-53
2023/03/11 08:05:57;;;;;;;;;;;2.40;99.90;;;;;;5056637;28;20012;-53
2023/03/11 08:08:23;;;;;;;;;;;;;;;;;;5057001;28;20007;-55
2023/03/11 08:10:48;;;;;;;;;;;;;;;;;;5039874;28;20377;-57
2023/03/11 08:13:14;;;;;;;;;;;;;;;;;;5040354;28;19928;-56
2023/03/11 08:15:40;;;;;;;;;;;;;;;;;;5056856;28;20291;-58
2023/03/11 08:18:06;;;;;;;;;;;;;;;;;;5054843;28;20336;-57
2023/03/11 08:20:32;;;;;;;;;;;;;;;;;;5060499;28;20439;-54
2023/03/11 08:22:58;;;;;;;;;;;;;;;;;;5055799;28;20370;-56
2023/03/11 08:25:24;;;;;;;;;;;;;;;;;;5062044;28;19960;-57
2023/03/11 08:27:49;;;;;;;;;;;2.60;99.90;;;;;;5058483;28;19979;-55
2023/03/11 08:30:15;;;;;;;;;;;3.20;99.90;;;;;;5041739;28;19920;-55
2023/03/11 08:32:41;;;;;;;;;;;;;;;;;;5052762;28;19927;-57
2023/03/11 08:35:07;;;;;;;;;;;;;;;;;;5051507;28;19925;-55
2023/03/11 08:37:32;;;;;;;;;;;2.60;99.90;;;;;;5057974;28;20305;-55
2023/03/11 08:39:58;;;;;;;;;;;2.60;99.90;;;;;;5060355;28;19950;-54
2023/03/11 08:42:24;;;;;;;;;;;;;;;;;;5060364;28;19987;-55
2023/03/11 08:44:50;;;;;;;;;;;;;;;;;;5053876;28;20358;-57
2023/03/11 08:47:16;;;;;;;;;;;;;;;;;;5052155;28;19929;-55
2023/03/11 08:49:42;;;;;;;;;;;;;;;;;;5052029;28;19925;-54
2023/03/11 08:52:08;;;;;;;;;;;;;;;;;;5050320;28;19921;-56
2023/03/11 08:54:34;;;;;;;;;;;;;;;;;;5053225;28;19924;-58
2023/03/11 08:57:01;;;;;;;;;;;3.00;99.90;;;;;;5053712;28;19925;-57
2023/03/11 08:59:27;;;;;;;;;;;;;;;;;;5051005;28;21111;-57
2023/03/11 09:01:53;;;;;;;;;;;3.70;99.90;;;;;;5055819;28;19928;-58
2023/03/11 09:04:19;;;;;;;;;;;;;;;;;;5051772;28;19952;-56
2023/03/11 09:06:45;;;;;;;;;;;;;;;;;;5054206;28;19924;-57
2023/03/11 09:09:11;;;;;;;;;;;;;;;;;;5048624;28;20475;-57
2023/03/11 09:11:36;;;;;;;;;;;3.20;99.90;;;;;;5050401;28;19960;-56
2023/03/11 09:14:02;;;;;;;;;;;3.90;99.90;;;;;;5052450;28;19975;-56
2023/03/11 09:16:28;;;;;;;;;;;3.50;99.90;;;;;;5051599;28;20020;-56
2023/03/11 09:18:54;;;;;;;;;;;;;;;;;;5049654;28;19933;-58
2023/03/11 09:21:20;;;;;;;;;;;;;;;;;;5051533;28;19928;-56
2023/03/11 09:23:46;;;;;;;;;;;;;;;;;;5049415;28;19929;-57
2023/03/11 09:26:12;;;;;;;;;;;3.60;99.90;;;;;;5053438;28;19932;-58
2023/03/11 09:28:37;;;;;;;;;;;3.80;99.90;;;;;;5053752;28;19971;-56
2023/03/11 09:31:03;;;;;;;;;;;3.10;99.90;;;;;;5053972;28;19964;-56
2023/03/11 09:33:29;;;;;;;;;;;;;;;;;;5053473;28;19928;-58
2023/03/11 09:35:55;;;;;;;;;;;;;;;;;;5063705;28;20371;-58
2023/03/11 09:38:21;;;;;;;;;;;;;;;;;;5070810;28;19929;-56
2023/03/11 09:41:05;;;;;;;;;;;3.80;99.90;;;;;;5070654;28;19975;-56
2023/03/11 09:43:31;;;;;;;;;;;;;;;;;;5064938;28;19920;-57
2023/03/11 09:46:15;;;;;;;;;;;4.70;99.90;;;;;;5072266;28;19921;-57
2023/03/11 09:48:41;;;;;;;;;;;;;;;;;;5064630;28;19920;-56
2023/03/11 09:51:17;;;;;;;;;;;3.90;99.90;;;;;;5070086;28;19927;-56
2023/03/11 09:53:43;;;;;;;;;;;;;;;;;;5066023;28;19925;-57
2023/03/11 09:56:10;;;;;;;;;;;5.00;99.90;;;;;;5071069;28;20038;-57
2023/03/11 09:58:35;;;;;;;;;;;;;;;;;;5070098;28;19920;-57
2023/03/11 10:01:01;;;;;;;;;;;;;;;;;;5070158;28;19943;-60
2023/03/11 10:03:27;;;;;;;;;;;;;;;;;;5071693;28;19920;-55
2023/03/11 10:05:53;;;;;;;;;;;;;;;;;;5070117;28;20293;-57
2023/03/11 10:08:27;;;;;;;;;;;4.70;99.90;;;;;;5061211;28;20406;-55
2023/03/11 10:10:52;;;;;;;;;;;;;;;;;;5071674;28;20292;-54
2023/03/11 10:13:18;;;;;;;;;;;;;;;;;;5062511;28;19974;-57
2023/03/11 10:15:47;;;;;;;;;;;;;;;;;;5066215;28;19925;-55
2023/03/11 10:18:31;;;;;;;;;;;4.50;99.90;;;;;;5060761;28;19925;-53
2023/03/11 10:20:57;;;;;;;;;;;;;;;;;;5069992;28;19924;-54
2023/03/11 10:23:23;;;;;;;;;;;;;;;;;;5067537;28;19929;-54
2023/03/11 10:25:49;;;;;;;;;;;;;;;;;;5064894;28;19920;-55
2023/03/11 10:28:15;;;;;;;;;;;;;;;;;;5062116;28;20297;-57
2023/03/11 10:30:40;;;;;;;;;;;;;;;;;;5070758;28;19920;-56
2023/03/11 10:33:06;;;;;;;;;;;;;;;;;;5070065;28;19927;-56
2023/03/11 10:35:32;;;;;;;;;;;;;;;;;;5059348;28;19925;-58
2023/03/11 10:37:58;;;;;;;;;;;;;;;;;;5067225;28;19927;-57
2023/03/11 10:40:29;;;;;;;;;;;5.50;99.90;;;;;;5069139;28;20015;-54
2023/03/11 10:42:55;;;;;;;;;;;;;;;;;;5070665;28;20445;-54
2023/03/11 10:45:22;;;;;;;;;;;5.90;99.90;;;;;;5062219;28;19996;-53
2023/03/11 10:47:48;;;;;;;;;;;;;;;;;;5065068;28;20003;-56
2023/03/11 10:50:14;;;;;;;;;;;;;;;;;;5070332;28;20373;-57
2023/03/11 10:52:39;;;;;;;;;;;;;;;;;;5070557;28;19960;-57
2023/03/11 10:55:05;;;;;;;;;;;;;;;;;;5055609;28;19946;-56
2023/03/11 10:57:31;;;;;;;;;;;;;;;;;;5067310;28;20206;-54
2023/03/11 10:59:58;;;;;;;;;;;6.30;99.90;;;;;;5053567;28;19921;-55
2023/03/11 11:02:24;;;;;;;;;;;;;;;;;;5060000;28;20378;-54
2023/03/11 11:04:50;;;;;;;;;;;;;;;;;;5053490;28;20313;-57
2023/03/11 11:07:16;;;;;;;;;;;;;;;;;;5059388;28;19927;-58
2023/03/11 11:09:42;;;;;;;;;;;;;;;;;;5060227;28;19975;-57
2023/03/11 11:12:08;;;;;;;;;;;;;;;;;;5054782;28;19921;-56
2023/03/11 11:14:44;;;;;;;;;;;6.20;99.90;;;;;;5063594;28;19932;-58
2023/03/11 11:17:10;;;;;;;;;;;;;;;;;;5067747;28;20298;-59
2023/03/11 11:19:36;;;;;;;;;;;;;;;;;;5057758;28;19981;-56
2023/03/11 11:22:02;;;;;;;;;;;;;;;;;;5033654;28;19921;-57
2023/03/11 11:24:28;;;;;;;;;;;;;;;;;;5055889;28;20298;-55
2023/03/11 11:27:04;;;;;;;;;;;6.90;99.90;;;;;;5049565;28;20386;-54
2023/03/11 11:29:30;;;;;;;;;;;;;;;;;;5060157;28;20369;-56
2023/03/11 11:31:56;;;;;;;;;;;;;;;;;;5059262;28;20416;-56
2023/03/11 11:34:22;;;;;;;;;;;;;;;;;;5063290;28;19920;-56
2023/03/11 11:36:48;;;;;;;;;;;;;;;;;;5059647;28;19920;-58
2023/03/11 11:39:14;;;;;;;;;;;;;;;;;;5064991;28;19927;-56
2023/03/11 11:41:39;;;;;;;;;;;7.00;99.90;;;;;;5057219;28;20360;-55
2023/03/11 11:44:05;;;;;;;;;;;;;;;;;;5050476;28;19928;-55
2023/03/11 11:46:31;;;;;;;;;;;;;;;;;;5052508;28;19928;-56
2023/03/11 11:48:58;;;;;;;;;;;;;;;;;;5049020;28;19927;-56
2023/03/11 11:51:24;;;;;;;;;;;;;;;;;;5050627;28;19929;-57
2023/03/11 11:53:50;;;;;;;;;;;;;;;;;;5065283;28;20051;-54
2023/03/11 11:56:15;;;;;;;;;;;;;;;;;;5067506;28;20396;-57
2023/03/11 11:58:41;;;;;;;;;;;;;;;;;;5063645;28;20015;-56
2023/03/11 12:01:07;;;;;;;;;;;;;;;;;;5069349;28;20015;-56
2023/03/11 12:03:33;;;;;;;;;;;10.60;99.90;;;;;;5063474;28;20017;-53
2023/03/11 12:06:01;;;;;;;;;;;10.40;99.90;;;;;;5064786;28;19921;-53
2023/03/11 12:08:27;;;;;;;;;;;;;;;;;;5065708;28;20389;-55
2023/03/11 12:11:04;;;;;;;;;;;10.50;99.90;;;;;;5066335;28;19932;-56
2023/03/11 12:13:30;;;;;;;;;;;;;;;;;;5068882;28;19927;-57
2023/03/11 12:15:59;;;;;;;;;;;12.10;99.90;;;;;;5066780;28;19925;-56
2023/03/11 12:18:25;;;;;;;;;;;;;;;;;;5063949;28;19920;-57
2023/03/11 12:20:51;;;;;;;;;;;;;;;;;;5064570;28;20011;-57
2023/03/11 12:23:16;;;;;;;;;;;;;;;;;;5066923;28;20317;-56
2023/03/11 12:25:42;;;;;;;;;;;;;;;;;;5068874;28;19959;-51
2023/03/11 12:28:36;;;;;;;;;;;11.10;99.90;;;;;;5068610;28;19943;-56
2023/03/11 12:31:04;;;;;;;;;;;12.60;99.90;;;;;;5069259;28;19967;-56
2023/03/11 12:33:30;;;;;;;;;;;;;;;;;;5060586;28;19929;-55
2023/03/11 12:35:56;;;;;;;;;;;;;;;;;;5064838;28;19928;-53
2023/03/11 12:41:05;;;;;;;;;;;;;;;;;;5066822;22;20015;-53
2023/03/11 12:43:34;;;;;;;;;;;;;;;;;;5064135;28;20015;-55
2023/03/11 12:46:00;;;;;;;;;;;14.40;99.90;;;;;;5065325;28;19928;-53
2023/03/11 12:48:26;;;;;;;;;;;14.40;99.90;;;;;;5070394;28;19927;-54
2023/03/11 12:50:51;;;;;;;;;;;;;;;;;;5062860;28;19921;-54
2023/03/11 12:53:17;;;;;;;;;;;14.40;99.90;;;;;;5051151;28;20390;-55
2023/03/11 12:55:43;;;;;;;;;;;;;;;;;;5061873;28;19928;-53
2023/03/11 12:58:09;;;;;;;;;;;;;;;;;;5051853;28;19925;-51
2023/03/11 13:00:40;;;;;;;;;;;14.10;99.90;;;;;;5068220;28;19920;-51
2023/03/11 13:03:06;;;;;;;;;;;;;;;;;;5062481;28;19921;-53
2023/03/11 13:05:50;;;;;;;;;;;13.30;99.90;;;;;;5067819;28;19935;-53
2023/03/11 13:08:16;;;;;;;;;;;;;;;;;;5066091;28;19921;-53
2023/03/11 13:10:42;;;;;;;;;;;;;;;;;;5072037;28;19943;-54
2023/03/11 13:13:08;;;;;;;;;;;;;;;;;;5159482;22;19924;-55
2023/03/11 13:15:34;;;;;;;;;;;;;;;;;;5093037;28;19971;-57
2023/03/11 13:18:12;;;;;;;;;;;10.90;99.90;;;;;;5083685;28;19927;-55
2023/03/11 13:20:37;;;;;;;;;;;10.50;99.90;;;;;;5082629;28;19970;-54
2023/03/11 13:23:22;;;;;;;;;;;10.80;99.90;;;;;;5083691;28;19923;-55
2023/03/11 13:25:50;;;;;;;;;;;10.20;99.90;;;;;;5080691;28;19924;-52
2023/03/11 13:28:21;;;;;;;;;;;8.70;99.90;;;;;;5079620;28;19966;-56
2023/03/11 13:30:47;;;;;;;;;;;;;;;;;;5080234;28;20396;-56
2023/03/11 13:33:13;;;;;;;;;;;;;;;;;;5084422;28;19924;-59
2023/03/11 13:35:39;;;;;;;;;;;;;;;;;;5084676;28;19967;-57
2023/03/11 13:38:05;;;;;;;;;;;;;;;;;;5088479;28;19932;-52
2023/03/11 13:40:31;;;;;;;;;;;;;;;;;;5078993;28;19924;-53
2023/03/11 13:42:57;;;;;;;;;;;;;;;;;;5085923;28;19928;-53
2023/03/11 13:45:27;;;;;;;;;;;12.40;99.90;;;;;;5090694;28;20014;-52
2023/03/11 13:47:56;;;;;;;;;;;13.50;99.90;;;;;;5092429;28;19920;-56
2023/03/11 13:50:25;;;;;;;;;;;14.20;99.90;;;;;;5091836;28;19924;-55
2023/03/11 13:52:52;;;;;;;;;;;14.40;99.90;;;;;;5092700;28;19971;-57
2023/03/11 13:55:18;;;;;;;;;;;;;;;;;;5090279;28;19924;-57
2023/03/11 13:57:56;;;;;;;;;;;14.60;99.90;;;;;;5080086;28;20023;-57
2023/03/11 14:00:23;;;;;;;;;;;15.40;99.90;;;;;;5090083;28;19926;-56
2023/03/11 14:02:50;;;;;;;;;;;15.10;99.90;;;;;;5086064;28;19920;-57
2023/03/11 14:05:15;;;;;;;;;;;;;;;;;;5082878;28;19995;-56
2023/03/11 14:07:41;;;;;;;;;;;;;;;;;;5082126;28;19963;-54
2023/03/11 14:10:07;;;;;;;;;;;;;;;;;;5087170;28;19920;-57
2023/03/11 14:12:33;;;;;;;;;;;;;;;;;;5082455;28;19924;-53
2023/03/11 14:15:03;;;;;;;;;;;13.00;99.90;;;;;;5090935;28;19924;-55
2023/03/11 14:17:28;;;;;;;;;;;11.90;99.90;;;;;;5074103;28;19920;-55
2023/03/11 14:19:54;;;;;;;;;;;;;;;;;;5081386;28;19936;-55
2023/03/11 14:22:20;;;;;;;;;;;;;;;;;;5085345;28;19966;-55
2023/03/11 14:24:46;;;;;;;;;;;;;;;;;;5087268;28;19980;-54
2023/03/11 14:27:13;;;;;;;;;;;8.20;99.90;;;;;;5089287;28;20019;-53
2023/03/11 14:29:40;;;;;;;;;;;;;;;;;;5085002;28;19920;-55
2023/03/11 14:32:06;;;;;;;;;;;;;;;;;;5087089;28;19920;-56
2023/03/11 14:34:32;;;;;;;;;;;;;;;;;;5082371;28;19927;-53
2023/03/11 14:36:59;;;;;;;;;;;8.10;99.90;;;;;;5083241;28;19920;-57
2023/03/11 14:39:28;;;;;;;;;;;8.30;99.90;;;;;;5087880;28;19927;-53
2023/03/11 14:41:56;;;;;;;;;;;8.10;99.90;;;;;;5086317;28;19921;-54
2023/03/11 14:44:23;;;;;;;;;;;10.30;99.90;;;;;;5086751;28;19920;-56
2023/03/11 14:46:50;;;;;;;;;;;13.30;99.90;;;;;;5085050;28;19927;-53
2023/03/11 14:49:18;;;;;;;;;;;14.00;99.90;;;;;;5086316;28;19921;-55
2023/03/11 14:51:44;;;;;;;;;;;16.80;99.90;;;;;;5082013;28;20007;-56
2023/03/11 14:54:22;;;;;;;;;;;17.50;99.90;;;;;;5087750;28;20018;-53
2023/03/11 14:56:50;;;;;;;;;;;;;;;;;;5079303;28;19931;-55
2023/03/11 14:59:22;;;;;;;;;;;14.00;99.90;;;;;;5080425;28;20006;-54
2023/03/11 15:01:48;;;;;;;;;;;12.60;99.90;;;;;;5076339;28;19920;-52
2023/03/11 15:04:15;;;;;;;;;;;;;;;;;;5087328;28;19929;-55
2023/03/11 15:06:40;;;;;;;;;;;;;;;;;;5082802;28;19928;-51
2023/03/11 15:09:06;;;;;;;;;;;;;;;;;;5076227;28;19920;-55
2023/03/11 15:11:43;;;;;;;;;;;10.40;99.90;;;;;;5068596;28;19921;-57
2023/03/11 15:14:16;;;;;;;;;;;8.60;99.90;;;;;;5071680;28;19925;-52
2023/03/11 15:16:41;;;;;;;;;;;8.20;99.90;;;;;;5068264;28;20015;-53
2023/03/11 15:19:07;;;;;;;;;;;;;;;;;;5067163;28;20020;-55
2023/03/11 15:21:33;;;;;;;;;;;;;;;;;;5076717;28;19993;-55
2023/03/11 15:24:01;;;;;;;;;;;8.40;99.90;;;;;;5069893;28;19999;-54
2023/03/11 15:26:27;;;;;;;;;;;;;;;;;;5073383;28;20290;-55
2023/03/11 15:29:13;;;;;;;;;;;9.00;99.90;;;;;;5071470;28;19951;-54
2023/03/11 15:31:39;;;;;;;;;;;;;;;;;;5075029;28;19920;-54
2023/03/11 15:34:05;;;;;;;;;;;;;;;;;;5085085;28;21321;-53
2023/03/11 15:36:30;;;;;;;;;;;;;;;;;;5070305;28;19924;-54
2023/03/11 15:38:56;;;;;;;;;;;;;;;;;;5071500;28;19921;-54
2023/03/11 15:41:22;;;;;;;;;;;;;;;;;;5072850;28;20398;-52
2023/03/11 15:43:48;;;;;;;;;;;;;;;;;;5071084;28;20364;-54
2023/03/11 15:46:14;;;;;;;;;;;12.40;3.20;;;;;;5072126;28;19920;-54
2023/03/11 15:48:41;;;;;;;;;;;12.40;7.70;;;;;;5074961;28;19920;-53
2023/03/11 15:51:16;;;;;;;;;;;11.70;99.90;;;;;;5078547;28;19920;-55
2023/03/11 15:53:42;;;;;;;;;;;11.80;99.90;;;;;;5087499;28;19927;-55
2023/03/11 15:56:08;;;;;;;;;;;;;;;;;;5081212;28;19984;-56